Pagina principale
METAR-TAF:

METAR-TAF

Aeroporti :

Aeroporto Internazionale di Pristina

Pristina, Kosovo

latitudine: 42-34-27N, longitudine: 21-02-09E, altezza: 545 m

Osservazione

Il bollettino è stato emesso 22 minuti fa, alle 01:00 UTC
Vento 2 kt da nord/nord-ovest
Temperature 22°C
Umidità 73%
Pressione 1021 hPa
Visibilità 10 km o più
nessuna nube inferiore a 1500 m e nessun cumulonembo

METAR: BKPR 210100Z 33002KT CAVOK 22/17 Q1021 NOSIG

Ora: 03:22 (01:22 UTC)

Previsione

Il bollettino è stato emesso 1 ora e 52 minuti fa, alle 23:30 UTC
Previsione valida dal 21 alle 00 UTC al 21 alle 24 UTC
Vento 5 kt da direzioni variabili
Visibilità 10 km o più
nessuna nube inferiore a 1500 m e nessun cumulonembo

TAF: BKPR 202330Z 2100/2124 VRB05KT CAVOK

Osservazioni e previsioni meteorologiche di più di 4000 aeroporti (messaggi METAR e TAF).

Le stazioni disponibili sono rappresentate dai dischi gialli e rossi sulla carta.

Puntare il mouse per vedere il nome della stazione.

Clicca sopra per visualizzare le osservazioni e previsioni meteorologiche.

Per cambiare la mappa : fare clic sui pulsanti verdi con una croce nera per ingrandire, il pulsante verde con un trattino per diminuire, o sulla freccia verde per le mappe adiacenti.


METAR-TAF: